createdAt,value
2023-05-12T00:00:26.604Z,13.74
2023-05-12T00:03:12.238Z,13.74
2023-05-12T00:05:39.816Z,13.73
2023-05-12T00:08:06.909Z,13.69
2023-05-12T00:10:35.285Z,13.68
2023-05-12T00:13:03.060Z,13.65
2023-05-12T00:15:30.213Z,13.59
2023-05-12T00:17:57.425Z,13.48
2023-05-12T00:20:24.972Z,13.37
2023-05-12T00:22:52.185Z,13.32
2023-05-12T00:25:19.617Z,13.30
2023-05-12T00:27:47.743Z,13.26
2023-05-12T00:30:15.188Z,13.25
2023-05-12T00:32:42.346Z,13.30
2023-05-12T00:35:10.210Z,13.31
2023-05-12T00:37:37.530Z,13.28
2023-05-12T00:40:05.326Z,13.25
2023-05-12T00:42:34.769Z,13.23
2023-05-12T00:45:04.311Z,13.22
2023-05-12T00:47:31.861Z,13.25
2023-05-12T00:49:59.977Z,13.30
2023-05-12T00:52:27.550Z,13.30
2023-05-12T00:54:54.917Z,13.28
2023-05-12T00:57:25.279Z,13.26
2023-05-12T00:59:53.915Z,13.21
2023-05-12T01:02:22.919Z,13.18
2023-05-12T01:04:51.410Z,13.12
2023-05-12T01:07:22.262Z,13.07
2023-05-12T01:09:56.950Z,13.02
2023-05-12T01:12:26.580Z,12.99
2023-05-12T01:14:56.945Z,12.94
2023-05-12T01:17:32.371Z,12.89
2023-05-12T01:20:02.280Z,12.87
2023-05-12T01:22:33.205Z,12.85
2023-05-12T01:25:07.958Z,12.86
2023-05-12T01:27:38.955Z,12.85
2023-05-12T01:30:08.779Z,12.85
2023-05-12T01:32:38.719Z,12.79
2023-05-12T01:35:06.288Z,12.74
2023-05-12T01:37:34.144Z,12.68
2023-05-12T01:40:04.432Z,12.64
2023-05-12T01:42:31.527Z,12.61
2023-05-12T01:44:58.992Z,12.56
2023-05-12T01:47:27.351Z,12.50
2023-05-12T01:50:04.326Z,12.49
2023-05-12T01:52:32.535Z,12.48
2023-05-12T01:54:59.991Z,12.51
2023-05-12T01:57:29.601Z,12.51
2023-05-12T02:00:00.455Z,12.49
2023-05-12T02:02:29.796Z,12.48
2023-05-12T02:04:57.583Z,12.39
2023-05-12T02:07:24.801Z,12.29
2023-05-12T02:09:52.739Z,12.18
2023-05-12T02:12:20.685Z,12.11
2023-05-12T02:14:48.046Z,12.08
2023-05-12T02:17:16.888Z,12.03
2023-05-12T02:19:44.829Z,11.98
2023-05-12T02:22:12.784Z,11.95
2023-05-12T02:24:40.367Z,11.91
2023-05-12T02:27:07.577Z,11.93
2023-05-12T02:29:34.883Z,11.97
2023-05-12T02:32:02.848Z,11.99
2023-05-12T02:34:30.696Z,12.03
2023-05-12T02:36:58.352Z,12.06
2023-05-12T02:39:25.569Z,12.07
2023-05-12T02:41:53.000Z,12.04
2023-05-12T02:44:21.980Z,11.99
2023-05-12T02:46:49.369Z,11.93
2023-05-12T02:49:16.764Z,11.89
2023-05-12T02:51:45.908Z,11.86
2023-05-12T02:54:13.045Z,11.82
2023-05-12T02:56:40.967Z,11.76
2023-05-12T02:59:08.100Z,11.71
2023-05-12T03:01:35.269Z,11.66
2023-05-12T03:04:02.961Z,11.60
2023-05-12T03:06:30.382Z,11.54
2023-05-12T03:08:57.556Z,11.48
2023-05-12T03:11:25.965Z,11.43
2023-05-12T03:13:53.392Z,11.40
2023-05-12T03:16:20.628Z,11.38
2023-05-12T03:18:49.341Z,11.38
2023-05-12T03:21:17.209Z,11.44
2023-05-12T03:23:44.425Z,11.45
2023-05-12T03:26:12.085Z,11.48
2023-05-12T03:28:39.662Z,11.60
2023-05-12T03:31:06.842Z,11.67
2023-05-12T03:33:34.466Z,11.70
2023-05-12T03:36:02.692Z,11.77
2023-05-12T03:38:30.437Z,11.89
2023-05-12T03:41:07.996Z,11.94
2023-05-12T03:43:35.668Z,11.99
2023-05-12T03:46:03.589Z,12.05
2023-05-12T03:48:31.235Z,12.12
2023-05-12T03:50:59.180Z,12.20
2023-05-12T03:53:27.360Z,12.28
2023-05-12T03:55:54.481Z,12.35
2023-05-12T03:58:24.771Z,12.42
2023-05-12T04:00:55.916Z,12.46
2023-05-12T04:03:23.401Z,12.53
2023-05-12T04:05:50.721Z,12.54
2023-05-12T04:08:18.537Z,12.58
2023-05-12T04:10:45.668Z,12.65
2023-05-12T04:13:14.157Z,12.69
2023-05-12T04:15:41.731Z,12.72
2023-05-12T04:18:09.872Z,12.72
2023-05-12T04:20:37.845Z,12.92
2023-05-12T04:23:06.021Z,13.89
2023-05-12T04:25:33.663Z,15.31
2023-05-12T04:28:00.764Z,16.44
2023-05-12T04:30:28.654Z,17.51
2023-05-12T04:32:56.542Z,18.42
2023-05-12T04:35:24.156Z,19.17
2023-05-12T04:37:52.323Z,19.76
2023-05-12T04:40:21.257Z,19.49
2023-05-12T04:42:50.376Z,19.30
2023-05-12T04:45:18.464Z,19.66
2023-05-12T04:47:47.205Z,19.82
2023-05-12T04:50:14.905Z,20.14
2023-05-12T04:52:42.614Z,20.38
2023-05-12T04:55:10.263Z,20.68
2023-05-12T04:57:40.550Z,21.06
2023-05-12T05:00:09.283Z,21.23
2023-05-12T05:02:36.778Z,21.32
2023-05-12T05:05:06.877Z,21.12
2023-05-12T05:07:34.777Z,21.22
2023-05-12T05:10:03.190Z,21.38
2023-05-12T05:12:30.900Z,21.76
2023-05-12T05:14:58.332Z,22.26
2023-05-12T05:17:25.544Z,22.75
2023-05-12T05:19:58.439Z,22.84
2023-05-12T05:22:30.025Z,22.95
2023-05-12T05:24:57.823Z,23.28
2023-05-12T05:27:25.135Z,23.62
2023-05-12T05:29:56.454Z,23.94
2023-05-12T05:32:24.290Z,24.32
2023-05-12T05:34:51.495Z,24.67
2023-05-12T05:37:20.445Z,24.99
2023-05-12T05:39:47.653Z,25.12
2023-05-12T05:42:15.413Z,24.76
2023-05-12T05:44:44.306Z,24.62
2023-05-12T05:47:11.739Z,24.75
2023-05-12T05:49:39.653Z,24.80
2023-05-12T05:52:07.732Z,24.36
2023-05-12T05:54:36.433Z,24.01
2023-05-12T05:57:04.632Z,24.30
2023-05-12T05:59:32.694Z,24.86
2023-05-12T06:02:00.007Z,25.44
2023-05-12T06:04:27.772Z,25.67
2023-05-12T06:06:55.470Z,25.92
2023-05-12T06:09:22.695Z,26.37
2023-05-12T06:11:49.971Z,26.70
2023-05-12T06:14:17.874Z,27.00
2023-05-12T06:16:45.617Z,27.35
2023-05-12T06:19:12.983Z,27.36
2023-05-12T06:21:41.260Z,27.49
2023-05-12T06:24:09.139Z,27.76
2023-05-12T06:26:41.900Z,28.03
2023-05-12T06:29:09.854Z,28.08
2023-05-12T06:31:37.156Z,27.79
2023-05-12T06:34:04.438Z,27.74
2023-05-12T06:36:32.946Z,27.60
2023-05-12T06:39:01.924Z,27.49
2023-05-12T06:41:32.531Z,27.52
2023-05-12T06:44:09.680Z,27.64
2023-05-12T06:46:39.866Z,27.91
2023-05-12T06:49:08.281Z,28.23
2023-05-12T06:51:36.360Z,28.47
2023-05-12T06:54:05.064Z,28.86
2023-05-12T06:56:32.714Z,29.16
2023-05-12T06:59:02.328Z,29.20
2023-05-12T07:01:31.213Z,29.30
2023-05-12T07:03:59.821Z,29.31
2023-05-12T07:06:31.162Z,29.23
2023-05-12T07:08:58.415Z,29.31
2023-05-12T07:11:26.424Z,29.48
2023-05-12T07:13:53.535Z,29.53
2023-05-12T07:16:20.823Z,29.44
2023-05-12T07:18:48.663Z,29.33
2023-05-12T07:21:16.254Z,29.11
2023-05-12T07:24:35.330Z,28.92
2023-05-12T07:27:05.495Z,28.77
2023-05-12T07:29:32.749Z,28.33
2023-05-12T07:32:00.175Z,28.47
2023-05-12T07:34:28.061Z,28.71
2023-05-12T07:36:55.255Z,28.89
2023-05-12T07:39:23.926Z,28.83
2023-05-12T07:41:54.108Z,28.47
2023-05-12T07:44:21.232Z,28.51
2023-05-12T07:46:48.875Z,28.63
2023-05-12T07:49:16.788Z,28.73
2023-05-12T07:51:44.009Z,28.77
2023-05-12T07:54:11.207Z,28.82
2023-05-12T07:56:39.038Z,28.82
2023-05-12T07:59:20.082Z,28.64
2023-05-12T08:02:03.991Z,28.72
2023-05-12T08:04:34.612Z,28.84
2023-05-12T08:07:05.702Z,28.81
2023-05-12T08:09:33.393Z,28.74
2023-05-12T08:12:01.040Z,28.66
2023-05-12T08:14:28.634Z,28.67
2023-05-12T08:17:00.038Z,28.70
2023-05-12T08:19:29.786Z,28.58
2023-05-12T08:21:59.332Z,28.39
2023-05-12T08:24:29.426Z,28.36
2023-05-12T08:27:00.728Z,28.17
2023-05-12T08:29:28.021Z,28.02
2023-05-12T08:31:58.500Z,27.81
2023-05-12T08:34:28.092Z,27.46
2023-05-12T08:36:55.679Z,27.38
2023-05-12T08:39:22.960Z,27.30
2023-05-12T08:42:09.278Z,27.06
2023-05-12T08:44:39.639Z,26.72
2023-05-12T08:47:08.366Z,26.42
2023-05-12T08:49:41.869Z,26.08
2023-05-12T08:52:11.850Z,25.75
2023-05-12T08:54:52.260Z,25.36
2023-05-12T08:57:48.222Z,24.91
2023-05-12T09:00:20.426Z,24.62
2023-05-12T09:02:54.328Z,24.50
2023-05-12T09:05:23.335Z,24.66
2023-05-12T09:07:54.496Z,24.79
2023-05-12T09:10:34.426Z,24.98
2023-05-12T09:13:17.272Z,25.08
2023-05-12T09:15:48.247Z,25.11
2023-05-12T09:18:16.111Z,25.07
2023-05-12T09:20:44.345Z,25.04
2023-05-12T09:23:23.715Z,25.24
2023-05-12T09:26:01.138Z,25.54
2023-05-12T09:28:40.929Z,25.73
2023-05-12T09:31:20.237Z,25.78
2023-05-12T09:33:51.996Z,25.81
2023-05-12T09:36:24.291Z,25.87
2023-05-12T09:39:00.198Z,25.85
2023-05-12T09:41:35.046Z,25.94
2023-05-12T09:44:06.330Z,25.97
2023-05-12T09:46:35.473Z,25.98
2023-05-12T09:49:06.075Z,25.96
2023-05-12T09:51:38.508Z,25.97
2023-05-12T09:54:12.095Z,26.03
2023-05-12T09:56:46.481Z,26.09
2023-05-12T09:59:26.798Z,25.98
2023-05-12T10:01:58.553Z,25.76
2023-05-12T10:04:30.982Z,25.86
2023-05-12T10:07:12.636Z,25.90
2023-05-12T10:09:42.643Z,25.95
2023-05-12T10:12:10.434Z,25.76
2023-05-12T10:14:38.516Z,25.62
2023-05-12T10:17:07.904Z,25.36
2023-05-12T10:19:36.250Z,25.09
2023-05-12T10:22:05.654Z,24.85
2023-05-12T10:24:37.066Z,24.63
2023-05-12T10:27:08.311Z,24.47
2023-05-12T10:29:40.771Z,24.23
2023-05-12T10:32:08.715Z,24.01
2023-05-12T10:34:37.702Z,23.88
2023-05-12T10:37:10.375Z,23.81
2023-05-12T10:39:47.171Z,23.77
2023-05-12T10:42:26.509Z,23.63
2023-05-12T10:44:56.023Z,23.38
2023-05-12T10:47:26.428Z,23.17
2023-05-12T10:49:58.398Z,23.04
2023-05-12T10:52:25.841Z,22.94
2023-05-12T10:55:00.854Z,22.88
2023-05-12T10:57:30.361Z,23.02
2023-05-12T11:00:04.070Z,23.12
2023-05-12T11:02:36.237Z,23.06
2023-05-12T11:05:13.122Z,23.01
2023-05-12T11:07:47.652Z,23.02
2023-05-12T11:10:17.962Z,22.94
2023-05-12T11:12:45.786Z,22.92
2023-05-12T11:15:59.660Z,22.90
2023-05-12T11:18:29.160Z,22.98
2023-05-12T11:20:57.914Z,23.00
2023-05-12T11:23:30.176Z,22.90
2023-05-12T11:25:58.095Z,22.80
2023-05-12T11:28:27.722Z,22.83
2023-05-12T11:30:57.258Z,22.74
2023-05-12T11:33:28.056Z,22.71
2023-05-12T11:35:58.083Z,22.66
2023-05-12T11:38:27.430Z,22.62
2023-05-12T11:40:55.227Z,22.44
2023-05-12T11:43:25.241Z,22.38
2023-05-12T11:45:52.649Z,22.32
2023-05-12T11:48:22.020Z,22.34
2023-05-12T11:50:51.093Z,22.33
2023-05-12T11:53:19.245Z,22.24
2023-05-12T11:55:49.186Z,22.14
2023-05-12T11:58:30.083Z,22.08
2023-05-12T12:01:10.374Z,22.18
2023-05-12T12:03:49.599Z,22.25
2023-05-12T12:06:18.495Z,22.18
2023-05-12T12:08:57.140Z,22.19
2023-05-12T12:11:30.253Z,22.25
2023-05-12T12:14:00.554Z,22.38
2023-05-12T12:16:30.014Z,22.54
2023-05-12T12:18:58.121Z,22.66
2023-05-12T12:21:25.607Z,22.74
2023-05-12T12:23:53.143Z,22.76
2023-05-12T12:26:25.551Z,22.74
2023-05-12T12:28:53.209Z,22.80
2023-05-12T12:31:21.249Z,22.80
2023-05-12T12:33:48.631Z,22.84
2023-05-12T12:36:16.245Z,22.89
2023-05-12T12:38:54.419Z,22.92
2023-05-12T12:41:21.759Z,22.97
2023-05-12T12:43:49.152Z,23.10
2023-05-12T12:46:16.783Z,23.22
2023-05-12T12:48:44.255Z,23.34
2023-05-12T12:51:11.982Z,23.42
2023-05-12T12:53:39.317Z,23.46
2023-05-12T12:56:08.317Z,23.43
2023-05-12T12:58:36.866Z,23.48
2023-05-12T13:01:05.839Z,23.51
2023-05-12T13:03:34.874Z,23.61
2023-05-12T13:06:02.311Z,23.67
2023-05-12T13:08:29.684Z,23.73
2023-05-12T13:10:56.977Z,23.71
2023-05-12T13:13:24.526Z,23.66
2023-05-12T13:15:52.983Z,23.63
2023-05-12T13:18:21.034Z,23.62
2023-05-12T13:20:48.726Z,23.61
2023-05-12T13:23:16.164Z,23.57
2023-05-12T13:25:45.334Z,23.54
2023-05-12T13:28:13.079Z,23.57
2023-05-12T13:30:40.434Z,23.49
2023-05-12T13:33:10.677Z,23.50
2023-05-12T13:35:38.021Z,23.50
2023-05-12T13:38:05.134Z,23.48
2023-05-12T13:40:32.770Z,23.52
2023-05-12T13:43:02.569Z,23.52
2023-05-12T13:45:31.310Z,23.46
2023-05-12T13:47:59.516Z,23.49
2023-05-12T13:50:33.320Z,23.53
2023-05-12T13:53:01.441Z,23.46
2023-05-12T13:55:28.985Z,23.36
2023-05-12T13:57:56.344Z,23.30
2023-05-12T14:00:28.023Z,23.22
2023-05-12T14:03:01.261Z,23.23
2023-05-12T14:05:31.138Z,23.21
2023-05-12T14:07:58.680Z,23.15
2023-05-12T14:10:26.094Z,23.09
2023-05-12T14:12:53.947Z,23.00
2023-05-12T14:15:29.675Z,22.98
2023-05-12T14:18:07.877Z,23.02
2023-05-12T14:20:35.442Z,23.07
2023-05-12T14:23:02.654Z,23.05
2023-05-12T14:25:30.472Z,23.03
2023-05-12T14:27:58.138Z,22.98
2023-05-12T14:30:26.126Z,22.96
2023-05-12T14:32:53.486Z,22.94
2023-05-12T14:35:22.028Z,22.95
2023-05-12T14:37:49.702Z,23.01
2023-05-12T14:40:17.050Z,23.02
2023-05-12T14:42:44.693Z,23.03
2023-05-12T14:45:12.525Z,23.09
2023-05-12T14:47:40.241Z,22.98
2023-05-12T14:50:08.136Z,22.86
2023-05-12T14:52:37.975Z,22.81
2023-05-12T14:55:13.692Z,22.80
2023-05-12T14:57:41.541Z,22.85
2023-05-12T15:00:11.234Z,22.83
2023-05-12T15:02:40.080Z,22.76
2023-05-12T15:05:09.526Z,22.71
2023-05-12T15:07:38.852Z,22.64
2023-05-12T15:10:07.380Z,22.51
2023-05-12T15:12:34.762Z,22.38
2023-05-12T15:15:04.812Z,22.25
2023-05-12T15:17:32.344Z,22.02
2023-05-12T15:20:00.036Z,21.75
2023-05-12T15:22:31.002Z,21.55
2023-05-12T15:25:04.063Z,21.41
2023-05-12T15:27:32.306Z,21.35
2023-05-12T15:29:59.707Z,21.34
2023-05-12T15:32:27.227Z,21.36
2023-05-12T15:34:55.808Z,21.40
2023-05-12T15:37:23.124Z,21.44
2023-05-12T15:39:50.938Z,21.48
2023-05-12T15:42:26.248Z,21.52
2023-05-12T15:44:59.819Z,21.57
2023-05-12T15:47:27.643Z,21.62
2023-05-12T15:49:54.896Z,21.64
2023-05-12T15:52:22.768Z,21.64
2023-05-12T15:54:50.882Z,21.66
2023-05-12T15:57:17.988Z,21.66
2023-05-12T15:59:47.189Z,21.65
2023-05-12T16:02:18.636Z,21.68
2023-05-12T16:04:46.184Z,21.69
2023-05-12T16:07:13.658Z,21.63
2023-05-12T16:09:41.688Z,21.56
2023-05-12T16:12:10.988Z,21.51
2023-05-12T16:14:38.419Z,21.51
2023-05-12T16:17:06.510Z,21.50
2023-05-12T16:19:33.750Z,21.50
2023-05-12T16:22:06.212Z,21.48
2023-05-12T16:24:34.434Z,21.42
2023-05-12T16:27:01.540Z,21.37
2023-05-12T16:29:28.858Z,21.36
2023-05-12T16:31:56.653Z,21.32
2023-05-12T16:34:25.388Z,21.29
2023-05-12T16:39:20.925Z,21.28
2023-05-12T16:41:48.232Z,21.25
2023-05-12T16:44:15.576Z,21.18
2023-05-12T16:46:48.647Z,21.12
2023-05-12T16:49:16.094Z,21.05
2023-05-12T16:51:43.335Z,20.99
2023-05-12T16:54:11.437Z,20.95
2023-05-12T16:56:38.809Z,20.86
2023-05-12T16:59:06.178Z,20.76
2023-05-12T17:01:35.594Z,20.76
2023-05-12T17:04:11.920Z,20.77
2023-05-12T17:07:00.200Z,20.74
2023-05-12T17:09:43.141Z,20.64
2023-05-12T17:12:28.341Z,20.55
2023-05-12T17:15:11.878Z,20.54
2023-05-12T17:17:57.223Z,20.52
2023-05-12T17:20:39.874Z,20.46
2023-05-12T17:23:22.093Z,20.40
2023-05-12T17:26:04.072Z,20.39
2023-05-12T17:28:51.770Z,20.35
2023-05-12T17:31:34.940Z,20.33
2023-05-12T17:34:22.844Z,20.30
2023-05-12T17:37:07.522Z,20.32
2023-05-12T17:39:54.469Z,20.32
2023-05-12T17:42:36.701Z,20.23
2023-05-12T17:45:17.462Z,20.10
2023-05-12T17:47:45.624Z,20.01
2023-05-12T17:50:15.047Z,20.00
2023-05-12T17:52:43.281Z,20.00
2023-05-12T17:55:10.984Z,19.95
2023-05-12T17:57:38.594Z,19.91
2023-05-12T18:00:10.438Z,19.91
2023-05-12T18:02:44.646Z,19.88
2023-05-12T18:05:12.112Z,19.83
2023-05-12T18:07:39.385Z,19.80
2023-05-12T18:10:08.678Z,19.77
2023-05-12T18:12:36.509Z,19.73
2023-05-12T18:15:05.984Z,19.67
2023-05-12T18:17:42.359Z,19.63
2023-05-12T18:20:09.927Z,19.55
2023-05-12T18:22:37.250Z,19.50
2023-05-12T18:25:05.401Z,19.46
2023-05-12T18:27:32.536Z,19.40
2023-05-12T18:29:59.634Z,19.33
2023-05-12T18:32:27.516Z,19.23
2023-05-12T18:34:54.948Z,19.16
2023-05-12T18:37:22.464Z,19.12
2023-05-12T18:39:50.261Z,19.05
2023-05-12T18:42:17.877Z,18.92
2023-05-12T18:44:45.435Z,18.86
2023-05-12T18:47:12.744Z,18.83
2023-05-12T18:49:40.251Z,18.80
2023-05-12T18:52:07.456Z,18.78
2023-05-12T18:54:35.860Z,18.74
2023-05-12T18:57:03.584Z,18.62
2023-05-12T18:59:32.556Z,18.55
2023-05-12T19:02:00.345Z,18.51
2023-05-12T19:04:28.108Z,18.42
2023-05-12T19:06:56.654Z,18.32
2023-05-12T19:09:24.970Z,18.29
2023-05-12T19:11:52.049Z,18.22
2023-05-12T19:14:20.781Z,18.15
2023-05-12T19:16:48.599Z,18.09
2023-05-12T19:19:16.135Z,18.04
2023-05-12T19:21:43.726Z,17.93
2023-05-12T19:24:11.345Z,17.81
2023-05-12T19:26:38.538Z,17.73
2023-05-12T19:29:06.541Z,17.69
2023-05-12T19:31:34.211Z,17.61
2023-05-12T19:34:02.991Z,17.52
2023-05-12T19:36:30.709Z,17.45
2023-05-12T19:39:01.029Z,17.42
2023-05-12T19:41:29.907Z,17.42
2023-05-12T19:43:57.070Z,17.36
2023-05-12T19:46:24.821Z,17.23
2023-05-12T19:48:54.700Z,17.16
2023-05-12T19:51:21.919Z,17.18
2023-05-12T19:53:49.421Z,17.17
2023-05-12T19:56:18.311Z,17.11
2023-05-12T19:58:45.827Z,17.01
2023-05-12T20:01:13.310Z,16.97
2023-05-12T20:03:40.593Z,16.90
2023-05-12T20:06:07.762Z,16.87
2023-05-12T20:08:35.208Z,16.86
2023-05-12T20:11:02.742Z,16.86
2023-05-12T20:13:31.359Z,16.82
2023-05-12T20:15:59.015Z,16.79
2023-05-12T20:18:28.285Z,16.77
2023-05-12T20:20:56.103Z,16.73
2023-05-12T20:23:24.244Z,16.68
2023-05-12T20:25:52.838Z,16.67
2023-05-12T20:28:23.998Z,16.65
2023-05-12T20:30:51.848Z,16.63
2023-05-12T20:33:19.255Z,16.54
2023-05-12T20:35:46.817Z,16.45
2023-05-12T20:38:17.377Z,16.38
2023-05-12T20:40:44.817Z,16.30
2023-05-12T20:43:17.574Z,16.29
2023-05-12T20:45:45.318Z,16.35
2023-05-12T20:48:12.811Z,16.36
2023-05-12T20:50:40.019Z,16.33
2023-05-12T20:53:07.951Z,16.25
2023-05-12T20:55:35.238Z,16.15
2023-05-12T20:58:02.430Z,16.06
2023-05-12T21:00:30.267Z,15.99
2023-05-12T21:02:58.410Z,15.93
2023-05-12T21:05:25.811Z,15.93
2023-05-12T21:07:53.663Z,15.93
2023-05-12T21:10:21.550Z,15.94
2023-05-12T21:12:49.058Z,15.92
2023-05-12T21:15:16.772Z,15.89
2023-05-12T21:17:46.989Z,15.84
2023-05-12T21:20:14.020Z,15.76
2023-05-12T21:22:41.912Z,15.69
2023-05-12T21:25:09.844Z,15.71
2023-05-12T21:27:40.210Z,15.71
2023-05-12T21:30:09.518Z,15.67
2023-05-12T21:32:37.308Z,15.67
2023-05-12T21:35:06.296Z,15.70
2023-05-12T21:37:34.157Z,15.72
2023-05-12T21:40:01.527Z,15.71
2023-05-12T21:42:28.755Z,15.66
2023-05-12T21:44:56.988Z,15.64
2023-05-12T21:47:24.227Z,15.61
2023-05-12T21:49:56.232Z,15.57
2023-05-12T21:52:23.851Z,15.56
2023-05-12T21:54:52.229Z,15.51
2023-05-12T21:57:19.461Z,15.35
2023-05-12T21:59:46.980Z,15.27
2023-05-12T22:02:14.988Z,15.29
2023-05-12T22:04:42.278Z,15.23
2023-05-12T22:07:09.766Z,15.24
2023-05-12T22:09:37.291Z,15.30
2023-05-12T22:12:04.904Z,15.37
2023-05-12T22:14:32.385Z,15.44
2023-05-12T22:17:00.387Z,15.49
2023-05-12T22:19:28.115Z,15.48
2023-05-12T22:21:56.685Z,15.49
2023-05-12T22:24:24.222Z,15.53
2023-05-12T22:26:51.854Z,15.53
2023-05-12T22:29:19.288Z,15.52
2023-05-12T22:31:46.486Z,15.54
2023-05-12T22:34:14.114Z,15.48
2023-05-12T22:36:41.708Z,15.35
2023-05-12T22:39:09.180Z,15.25
2023-05-12T22:41:36.642Z,15.16
2023-05-12T22:44:04.315Z,15.08
2023-05-12T22:46:31.779Z,15.00
2023-05-12T22:48:58.987Z,14.93
2023-05-12T22:51:26.806Z,14.86
2023-05-12T22:53:53.964Z,14.80
2023-05-12T22:56:21.150Z,14.74
2023-05-12T22:58:48.928Z,14.72
2023-05-12T23:01:16.188Z,14.75
2023-05-12T23:03:43.735Z,14.70
2023-05-12T23:06:11.592Z,14.62
2023-05-12T23:08:39.248Z,14.59
2023-05-12T23:11:06.480Z,14.59
2023-05-12T23:13:33.913Z,14.58
2023-05-12T23:16:01.418Z,14.55
2023-05-12T23:18:28.602Z,14.51
2023-05-12T23:20:56.066Z,14.48
2023-05-12T23:23:23.725Z,14.45
2023-05-12T23:25:51.213Z,14.40
2023-05-12T23:28:18.678Z,14.35
2023-05-12T23:30:45.911Z,14.32
2023-05-12T23:33:13.688Z,14.29
2023-05-12T23:35:41.698Z,14.28
2023-05-12T23:38:08.821Z,14.32
2023-05-12T23:40:38.704Z,14.37
2023-05-12T23:43:06.464Z,14.41
2023-05-12T23:45:34.164Z,14.41
2023-05-12T23:48:04.026Z,14.43
2023-05-12T23:50:31.841Z,14.46
2023-05-12T23:52:58.959Z,14.44
2023-05-12T23:55:27.751Z,14.43
2023-05-12T23:57:56.308Z,14.43
